METAR Data
IDs: Format: Raw Decoded Include TAF

Data at: 1952 UTC 13 Nov 2019

METAR for:KSPW (Spencer Muni, IA, US)
Text:KSPW 131927Z AUTO 33007KT 10SM BKN026 OVC060 04/M05 A2991 RMK AO2 T00441050
Temperature: 4.4°C ( 40°F)
Dewpoint: -5.0°C ( 23°F) [RH = 50%]
Pressure (altimeter):29.91 inches Hg (1013.0 mb)
Winds:from the NNW (330 degrees) at 8 MPH (7 knots; 3.6 m/s)
Visibility:10 or more sm (16+ km)
Ceiling:2600 feet AGL
Clouds: broken clouds at 2600 feet AGL, overcast cloud deck at 6000 feet AGL
QC Flag:automated observation with no human augmentation